Time;durP1;ratioP1;P1;durP2;ratioP2;P2;SDS_P1;SDS_P2;PMS_P1;PMS_P2;Temp;Humidity;BMP_temperature;BMP_pressure;BME280_temperature;BME280_humidity;BME280_pressure;Samples;Min_cycle;Max_cycle;Signal;HPM_P1;HPM_P2
2021/08/12 00:00:01;;;;;;;9.82;6.57;;;;;;;28.00;33.72;100638.88;5112860;28;20066;-71
2021/08/12 00:02:28;;;;;;;9.95;7.45;;;;;;;27.87;33.94;100641.44;5114671;28;20050;-71
2021/08/12 00:04:57;;;;;;;10.25;6.53;;;;;;;27.90;33.73;100638.53;5114893;28;20036;-71
2021/08/12 00:07:25;;;;;;;12.50;7.00;;;;;;;27.86;33.93;100636.97;5114940;28;20062;-71
2021/08/12 00:09:52;;;;;;;11.02;7.28;;;;;;;27.92;33.78;100630.28;5114731;28;20054;-72
2021/08/12 00:12:20;;;;;;;9.00;6.68;;;;;;;27.96;33.57;100637.31;5114237;28;20407;-72
2021/08/12 00:14:47;;;;;;;8.93;6.20;;;;;;;27.94;33.42;100641.94;5114577;27;20032;-71
2021/08/12 00:17:14;;;;;;;9.52;7.10;;;;;;;27.95;33.78;100643.72;5114621;28;20039;-71
2021/08/12 00:19:42;;;;;;;14.05;6.55;;;;;;;27.72;33.87;100654.03;5109768;28;20049;-71
2021/08/12 00:22:11;;;;;;;9.35;6.72;;;;;;;27.69;34.04;100651.50;5114673;28;20043;-70
2021/08/12 00:24:38;;;;;;;10.60;6.50;;;;;;;27.63;34.43;100660.00;5112554;27;20040;-70
2021/08/12 00:27:06;;;;;;;12.95;6.85;;;;;;;27.48;34.82;100657.22;5114253;27;20044;-70
2021/08/12 00:29:34;;;;;;;11.02;6.80;;;;;;;27.52;34.40;100657.00;5114097;28;20048;-70
2021/08/12 00:32:02;;;;;;;10.95;6.82;;;;;;;27.56;34.27;100660.44;5113005;28;20050;-71
2021/08/12 00:34:29;;;;;;;11.98;6.78;;;;;;;27.58;34.28;100662.06;5112961;28;20089;-71
2021/08/12 00:36:57;;;;;;;9.02;6.07;;;;;;;27.67;34.39;100656.16;5112877;27;20554;-72
2021/08/12 00:39:26;;;;;;;10.68;7.45;;;;;;;27.68;34.15;100660.63;5114012;28;20501;-71
2021/08/12 00:41:54;;;;;;;11.00;6.70;;;;;;;27.65;34.01;100658.06;5113992;27;20043;-71
2021/08/12 00:44:21;;;;;;;10.38;6.55;;;;;;;27.65;34.05;100665.31;5113811;27;20050;-71
2021/08/12 00:46:49;;;;;;;11.50;7.03;;;;;;;27.58;34.43;100661.19;5113953;27;20405;-71
2021/08/12 00:49:16;;;;;;;9.15;6.45;;;;;;;27.51;34.48;100665.19;5113615;28;20438;-71
2021/08/12 00:51:44;;;;;;;10.48;6.60;;;;;;;27.34;35.12;100666.13;5113781;28;20048;-71
2021/08/12 00:54:12;;;;;;;10.52;6.97;;;;;;;27.33;35.20;100656.25;5112836;27;20479;-71
2021/08/12 00:56:50;;;;;;;8.10;6.47;;;;;;;27.39;34.98;100653.19;5113291;27;20051;-71
2021/08/12 00:59:18;;;;;;;10.85;6.90;;;;;;;27.31;35.30;100661.75;5111969;28;20044;-71
2021/08/12 01:01:46;;;;;;;12.23;7.38;;;;;;;27.19;35.58;100656.13;5112942;28;20032;-71
2021/08/12 01:04:13;;;;;;;12.40;7.40;;;;;;;27.21;35.52;100660.50;5113082;27;20043;-71
2021/08/12 01:06:55;;;;;;;10.68;6.78;;;;;;;27.11;35.48;100661.97;5113251;27;20489;-71
2021/08/12 01:09:29;;;;;;;9.82;7.25;;;;;;;27.19;34.91;100658.84;5112140;28;20050;-72
2021/08/12 01:12:03;;;;;;;12.50;7.10;;;;;;;27.26;34.92;100669.25;5113545;27;20044;-71
2021/08/12 01:14:42;;;;;;;12.52;6.90;;;;;;;27.20;34.97;100671.44;5113535;27;20044;-71
2021/08/12 01:17:12;;;;;;;11.45;7.00;;;;;;;27.19;35.55;100669.69;5111495;28;20050;-72
2021/08/12 01:20:02;;;;;;;10.77;6.70;;;;;;;27.19;35.32;100673.28;5113201;28;20031;-71
2021/08/12 01:22:31;;;;;;;12.52;6.93;;;;;;;26.96;35.83;100666.41;5113534;27;20049;-71
2021/08/12 01:25:03;;;;;;;12.93;7.05;;;;;;;27.05;36.27;100664.13;5113174;27;20050;-71
2021/08/12 01:27:53;;;;;;;9.77;7.00;;;;;;;27.11;36.13;100661.13;5112086;28;20044;-72
2021/08/12 01:30:27;;;;;;;11.50;7.32;;;;;;;27.18;35.84;100674.22;5112879;28;20065;-71
2021/08/12 01:33:05;;;;;;;10.88;7.63;;;;;;;27.15;35.61;100662.69;5113349;28;20040;-72
2021/08/12 01:35:39;;;;;;;9.73;6.80;;;;;;;27.16;35.36;100661.72;5113205;27;20088;-71
2021/08/12 01:38:24;;;;;;;10.75;7.00;;;;;;;27.17;35.41;100660.78;5111785;28;20059;-71
2021/08/12 01:40:54;;;;;;;11.30;7.30;;;;;;;27.15;35.51;100665.41;5112298;28;20046;-71
2021/08/12 01:43:22;;;;;;;11.93;6.90;;;;;;;27.13;35.63;100676.31;5113059;27;20051;-72
2021/08/12 01:45:51;;;;;;;8.70;6.57;;;;;;;27.03;35.66;100672.38;5112584;27;20043;-71
2021/08/12 01:48:19;;;;;;;11.40;7.28;;;;;;;27.01;35.64;100676.97;5112858;28;20047;-71
2021/08/12 01:50:49;;;;;;;11.68;7.45;;;;;;;26.99;36.00;100673.47;5111266;28;20032;-71
2021/08/12 01:53:20;;;;;;;9.77;7.13;;;;;;;27.01;35.93;100671.56;5112088;28;20048;-71
2021/08/12 01:55:48;;;;;;;11.98;6.93;;;;;;;27.06;36.09;100663.16;5112551;28;20040;-71
2021/08/12 01:58:18;;;;;;;8.77;6.75;;;;;;;27.08;36.26;100658.56;5112920;28;20039;-71
2021/08/12 02:00:48;;;;;;;10.32;7.15;;;;;;;27.06;36.18;100664.06;5112464;28;20036;-71
2021/08/12 02:03:36;;;;;;;11.63;6.85;;;;;;;27.04;35.92;100660.56;5098740;27;20487;-70
2021/08/12 02:06:08;;;;;;;10.70;7.07;;;;;;;27.02;36.12;100661.59;5112109;28;20050;-70
2021/08/12 02:08:36;;;;;;;12.82;6.72;;;;;;;27.01;36.47;100655.31;5112464;28;20044;-70
2021/08/12 02:11:03;;;;;;;11.55;7.15;;;;;;;27.10;36.58;100659.34;5112955;27;20479;-71
2021/08/12 02:13:31;;;;;;;8.65;6.88;;;;;;;27.11;36.66;100670.09;5107779;28;20044;-71
2021/08/12 02:15:58;;;;;;;10.63;6.72;;;;;;;27.15;36.59;100677.13;5112282;27;20043;-71
2021/08/12 02:18:26;;;;;;;8.93;7.10;;;;;;;27.19;36.50;100675.09;5109964;28;20044;-71
2021/08/12 02:21:02;;;;;;;10.63;6.97;;;;;;;27.21;36.42;100673.19;5112452;28;20074;-71
2021/08/12 02:23:35;;;;;;;10.20;6.50;;;;;;;27.18;36.89;100678.75;5112297;28;20043;-72
2021/08/12 02:26:06;;;;;;;10.52;7.13;;;;;;;27.24;36.95;100682.03;5112379;28;20039;-72
2021/08/12 02:28:34;;;;;;;9.60;6.50;;;;;;;27.24;37.10;100673.88;5112004;28;20386;-69
2021/08/12 02:31:04;;;;;;;11.57;7.22;;;;;;;27.23;37.21;100682.13;5112095;28;20403;-71
2021/08/12 02:33:36;;;;;;;13.07;6.55;;;;;;;27.16;37.74;100681.59;5112455;28;20039;-72
2021/08/12 02:36:05;;;;;;;14.52;7.05;;;;;;;27.03;37.88;100682.34;5112491;28;20044;-71
2021/08/12 02:38:45;;;;;;;10.05;6.53;;;;;;;27.04;38.83;100693.09;5111828;28;20168;-71
2021/08/12 02:41:15;;;;;;;11.35;7.32;;;;;;;26.97;38.84;100691.66;5112364;28;20369;-72
2021/08/12 02:43:44;;;;;;;9.88;6.95;;;;;;;26.99;39.22;100697.84;5111519;28;20043;-71
2021/08/12 02:46:15;;;;;;;9.75;6.22;;;;;;;27.01;41.14;100706.78;5111910;28;20054;-72
2021/08/12 02:48:43;;;;;;;8.73;6.35;;;;;;;27.09;43.20;100709.97;5113860;28;20040;-71
2021/08/12 02:51:33;;;;;;;8.40;6.50;;;;;;;27.20;43.25;100714.81;5107772;28;20047;-72
2021/08/12 02:54:05;;;;;;;12.20;7.13;;;;;;;27.28;43.35;100712.56;5116205;28;20035;-71
2021/08/12 02:56:34;;;;;;;12.50;6.45;;;;;;;27.32;44.95;100714.16;5116410;27;20046;-71
2021/08/12 02:59:04;;;;;;;10.07;6.25;;;;;;;27.35;46.71;100716.69;5114745;28;20495;-71
2021/08/12 03:01:35;;;;;;;10.15;5.60;;;;;;;27.37;47.77;100718.34;5115708;28;20475;-72
2021/08/12 03:04:04;;;;;;;9.55;6.07;;;;;;;27.45;49.05;100715.22;5115966;28;20040;-71
2021/08/12 03:06:31;;;;;;;11.23;6.15;;;;;;;27.51;51.02;100724.84;5115817;28;20043;-71
2021/08/12 03:09:00;;;;;;;9.90;6.00;;;;;;;27.55;51.57;100732.78;5115978;28;20047;-71
2021/08/12 03:11:29;;;;;;;15.00;6.35;;;;;;;27.57;52.61;100733.56;5115786;28;20410;-71
2021/08/12 03:14:00;;;;;;;13.98;6.40;;;;;;;27.58;54.67;100737.16;5115989;28;20050;-70
2021/08/12 03:16:28;;;;;;;11.15;6.22;;;;;;;27.61;55.52;100739.72;5114442;27;20046;-71
2021/08/12 03:18:55;;;;;;;16.00;6.22;;;;;;;27.65;55.92;100741.28;5115106;27;20062;-71
2021/08/12 03:21:22;;;;;;;14.02;6.45;;;;;;;27.65;56.25;100735.84;5115142;27;20498;-71
2021/08/12 03:23:50;;;;;;;15.00;7.13;;;;;;;27.66;57.11;100740.31;5115529;27;20035;-71
2021/08/12 03:26:18;;;;;;;10.75;6.25;;;;;;;27.68;57.51;100738.41;5114336;28;20479;-71
2021/08/12 03:29:08;;;;;;;17.70;6.75;;;;;;;27.71;57.65;100727.38;5114256;28;20040;-70
2021/08/12 03:31:35;;;;;;;11.40;6.03;;;;;;;27.70;57.78;100717.47;5115213;28;20391;-69
2021/08/12 03:34:02;;;;;;;20.10;7.55;;;;;;;27.66;57.98;100716.78;5115697;27;20047;-70
2021/08/12 03:36:30;;;;;;;16.83;6.57;;;;;;;27.61;58.48;100705.31;5115209;28;20044;-71
2021/08/12 03:38:57;;;;;;;15.15;7.20;;;;;;;27.63;58.64;100697.09;5115388;28;20039;-71
2021/08/12 03:41:25;;;;;;;13.18;6.32;;;;;;;27.64;58.79;100693.41;5114940;27;20482;-71
2021/08/12 03:43:52;;;;;;;12.48;6.57;;;;;;;27.64;58.44;100701.53;5114916;28;20032;-71
2021/08/12 03:46:21;;;;;;;14.75;7.10;;;;;;;27.65;58.11;100703.31;5114921;28;20451;-70
2021/08/12 03:48:49;;;;;;;18.65;6.95;;;;;;;27.62;58.10;100696.22;5115112;27;20039;-70
2021/08/12 03:51:36;;;;;;;13.10;6.75;;;;;;;27.64;57.78;100704.25;5106448;28;20104;-70
2021/08/12 03:54:05;;;;;;;11.07;6.55;;;;;;;27.68;57.78;100711.28;5115170;27;20054;-71
2021/08/12 03:56:33;;;;;;;13.13;6.82;;;;;;;27.74;57.73;100703.66;5114322;27;20122;-71
2021/08/12 03:59:00;;;;;;;12.57;6.90;;;;;;;27.77;57.92;100699.88;5113923;28;20379;-71
2021/08/12 04:01:30;;;;;;;12.88;6.55;;;;;;;27.85;58.11;100691.31;5113679;28;20506;-71
2021/08/12 04:03:58;;;;;;;15.10;6.65;;;;;;;27.93;58.00;100689.06;5114652;28;20048;-71
2021/08/12 04:06:47;;;;;;;15.65;6.63;;;;;;;27.99;58.02;100683.25;5110861;28;20398;-70
2021/08/12 04:09:14;;;;;;;15.10;6.70;;;;;;;28.05;58.24;100686.50;5114122;28;20055;-72
2021/08/12 04:11:42;;;;;;;16.95;6.50;;;;;;;28.10;58.08;100688.94;5114449;27;20031;-71
2021/08/12 04:14:09;;;;;;;12.98;6.40;;;;;;;28.19;58.08;100687.56;5113228;28;20051;-70
2021/08/12 04:16:58;;;;;;;16.05;5.40;;;;;;;28.32;57.59;100692.19;5114324;27;20051;-72
2021/08/12 04:19:26;;;;;;;14.95;5.70;;;;;;;28.42;57.41;100695.25;5114227;28;20039;-71
2021/08/12 04:21:53;;;;;;;16.48;6.57;;;;;;;28.51;57.08;100689.25;5114415;27;20039;-71
2021/08/12 04:24:20;;;;;;;14.27;6.15;;;;;;;28.63;56.95;100690.34;5113646;28;20487;-71
2021/08/12 04:26:48;;;;;;;11.45;5.95;;;;;;;28.69;56.91;100690.84;5114344;27;20066;-71
2021/08/12 04:29:15;;;;;;;14.02;5.72;;;;;;;28.83;56.80;100693.66;5114303;28;20044;-71
2021/08/12 04:32:05;;;;;;;19.33;6.05;;;;;;;29.00;56.54;100698.06;5106394;28;20483;-71
2021/08/12 04:34:33;;;;;;;13.23;5.55;;;;;;;29.13;56.33;100699.06;5114047;28;20048;-72
2021/08/12 04:37:00;;;;;;;14.55;5.97;;;;;;;29.26;56.17;100691.00;5113680;27;20046;-71
2021/08/12 04:39:27;;;;;;;17.00;6.55;;;;;;;29.37;56.22;100698.50;5113241;27;20102;-71
2021/08/12 04:41:55;;;;;;;14.50;6.28;;;;;;;29.49;55.91;100697.72;5113840;28;20043;-72
2021/08/12 04:44:22;;;;;;;13.48;5.95;;;;;;;29.62;55.91;100696.81;5113897;28;20379;-71
2021/08/12 04:46:49;;;;;;;12.13;5.32;;;;;;;29.73;55.71;100697.00;5111030;27;20501;-71
2021/08/12 04:49:19;;;;;;;14.35;5.68;;;;;;;29.87;55.52;100704.25;5113622;28;20040;-71
2021/08/12 04:51:47;;;;;;;17.50;6.15;;;;;;;29.99;54.94;100692.63;5113293;27;20044;-72
2021/08/12 04:54:16;;;;;;;17.45;5.47;;;;;;;30.09;54.50;100703.75;5112810;28;20410;-71
2021/08/12 04:56:43;;;;;;;14.65;5.75;;;;;;;30.27;53.65;100702.53;5113484;27;20056;-70
2021/08/12 04:59:11;;;;;;;15.55;5.68;;;;;;;30.49;52.99;100702.00;5113331;27;20405;-71
2021/08/12 05:01:38;;;;;;;11.05;5.10;;;;;;;30.68;52.39;100691.56;5113178;28;20036;-70
2021/08/12 05:04:05;;;;;;;17.55;5.25;;;;;;;30.84;51.72;100695.00;5113315;28;20055;-69
2021/08/12 05:06:35;;;;;;;19.35;5.57;;;;;;;30.99;51.69;100692.16;5112122;28;20058;-70
2021/08/12 05:09:02;;;;;;;13.45;5.50;;;;;;;31.11;51.15;100686.75;5113342;28;20047;-70
2021/08/12 05:11:29;;;;;;;16.00;5.20;;;;;;;31.28;50.88;100685.53;5112907;28;20036;-71
2021/08/12 05:14:05;;;;;;;15.73;5.43;;;;;;;31.47;50.42;100687.81;5112847;27;20043;-67
2021/08/12 05:16:32;;;;;;;15.50;5.65;;;;;;;31.63;49.70;100681.16;5113113;27;20391;-71
2021/08/12 05:19:00;;;;;;;16.70;5.18;;;;;;;31.84;49.19;100684.16;5112867;28;20047;-71
2021/08/12 05:21:27;;;;;;;12.15;5.68;;;;;;;32.06;48.22;100694.34;5112679;28;20047;-71
2021/08/12 05:23:57;;;;;;;18.00;5.78;;;;;;;32.17;47.39;100677.16;5112655;28;20039;-72
2021/08/12 05:26:24;;;;;;;14.27;5.28;;;;;;;32.26;47.11;100682.81;5112670;27;20047;-71
2021/08/12 05:28:51;;;;;;;13.77;5.32;;;;;;;32.43;46.53;100681.53;5112722;28;20036;-70
2021/08/12 05:31:19;;;;;;;19.30;5.22;;;;;;;32.56;45.72;100686.94;5113081;28;20423;-71
2021/08/12 05:33:46;;;;;;;15.85;5.32;;;;;;;32.74;45.41;100693.75;5111935;27;20040;-70
2021/08/12 05:36:21;;;;;;;15.73;5.57;;;;;;;32.96;45.06;100691.06;5112266;28;20044;-70
2021/08/12 05:38:48;;;;;;;15.45;4.90;;;;;;;33.18;44.59;100693.84;5112931;27;20042;-70
2021/08/12 05:41:18;;;;;;;22.05;5.30;;;;;;;33.38;43.88;100692.28;5112960;28;20044;-72
2021/08/12 05:43:45;;;;;;;17.40;5.15;;;;;;;33.42;43.22;100701.09;5112494;28;20043;-70
2021/08/12 05:46:13;;;;;;;19.08;5.30;;;;;;;33.27;42.75;100688.66;5112447;28;20036;-70
2021/08/12 05:48:40;;;;;;;14.77;5.13;;;;;;;33.32;42.24;100705.59;5112232;27;20036;-71
2021/08/12 05:51:07;;;;;;;16.17;4.78;;;;;;;33.46;42.19;100714.44;5112343;28;20036;-70
2021/08/12 05:53:35;;;;;;;16.17;4.57;;;;;;;33.57;41.95;100717.16;5112866;28;20122;-70
2021/08/12 05:56:03;;;;;;;14.20;5.10;;;;;;;33.64;41.71;100712.06;5112496;28;20391;-71
2021/08/12 05:58:37;;;;;;;18.00;5.40;;;;;;;33.88;41.01;100706.47;5112387;28;20050;-70
2021/08/12 06:01:06;;;;;;;16.67;5.40;;;;;;;34.07;40.54;100712.16;5112139;28;20092;-71
2021/08/12 06:03:34;;;;;;;16.83;5.25;;;;;;;34.26;40.30;100709.69;5112156;28;20134;-70
2021/08/12 06:06:02;;;;;;;14.00;4.85;;;;;;;34.34;39.64;100714.47;5112324;28;20100;-71
2021/08/12 06:08:32;;;;;;;14.95;5.03;;;;;;;34.48;39.48;100718.81;5111837;28;20042;-70
2021/08/12 06:10:59;;;;;;;14.40;4.57;;;;;;;34.72;39.13;100722.25;5112412;28;20066;-70
2021/08/12 06:13:27;;;;;;;13.68;4.80;;;;;;;34.89;38.57;100727.13;5109755;28;20045;-71
2021/08/12 06:15:55;;;;;;;15.18;5.00;;;;;;;34.99;38.57;100733.56;5111612;28;20367;-71
2021/08/12 06:18:23;;;;;;;15.30;4.35;;;;;;;34.99;38.66;100728.06;5111741;28;20039;-71
2021/08/12 06:20:50;;;;;;;12.90;4.93;;;;;;;35.12;38.52;100738.84;5111821;28;20109;-71
2021/08/12 06:23:18;;;;;;;15.35;4.65;;;;;;;35.24;38.30;100740.56;5111233;28;20153;-70
2021/08/12 06:25:45;;;;;;;18.17;4.70;;;;;;;35.31;38.04;100747.25;5111689;28;20050;-71
2021/08/12 06:28:13;;;;;;;13.20;4.97;;;;;;;35.23;37.97;100747.06;5111545;28;20376;-70
2021/08/12 06:30:40;;;;;;;16.60;5.25;;;;;;;35.38;37.83;100737.44;5111513;28;20040;-70
2021/08/12 06:33:09;;;;;;;18.30;4.78;;;;;;;35.44;37.88;100738.81;5111396;28;20058;-70
2021/08/12 06:35:36;;;;;;;18.45;4.43;;;;;;;35.62;37.81;100745.41;5113295;28;20117;-69
2021/08/12 06:38:05;;;;;;;17.08;5.13;;;;;;;35.77;37.69;100746.81;5104722;28;20047;-70
2021/08/12 06:40:51;;;;;;;15.27;4.40;;;;;;;35.98;37.31;100757.72;5111160;28;20036;-71
2021/08/12 06:43:19;;;;;;;12.27;4.68;;;;;;;35.88;37.26;100756.81;5111640;28;20375;-72
2021/08/12 06:45:46;;;;;;;15.43;4.43;;;;;;;35.90;36.90;100757.56;5111849;28;20414;-69
2021/08/12 06:48:15;;;;;;;14.25;4.80;;;;;;;35.84;37.17;100739.72;5102741;28;20395;-69
2021/08/12 06:51:02;;;;;;;14.57;4.18;;;;;;;35.91;36.65;100737.28;5117595;28;20128;-70
2021/08/12 06:53:30;;;;;;;15.30;4.53;;;;;;;36.02;36.50;100750.94;5111674;28;20050;-71
2021/08/12 06:55:57;;;;;;;13.60;4.50;;;;;;;36.11;36.57;100739.09;5110438;28;20046;-71
2021/08/12 06:58:25;;;;;;;12.70;4.88;;;;;;;36.04;36.40;100743.41;5111862;28;20043;-70
2021/08/12 07:00:52;;;;;;;11.98;3.70;;;;;;;36.15;36.32;100747.94;5109793;28;20100;-71
2021/08/12 07:03:21;;;;;;;15.00;4.90;;;;;;;36.31;36.06;100738.16;5111775;28;20047;-68
2021/08/12 07:05:48;;;;;;;12.75;4.35;;;;;;;36.22;36.01;100741.78;5109114;28;20051;-70
2021/08/12 07:08:15;;;;;;;13.77;4.30;;;;;;;36.37;35.78;100744.09;5111534;28;20044;-69
2021/08/12 07:10:43;;;;;;;16.30;4.05;;;;;;;36.51;35.35;100758.31;5111602;28;20044;-69
2021/08/12 07:13:10;;;;;;;12.60;4.10;;;;;;;36.64;35.22;100760.78;5111443;28;20035;-68
2021/08/12 07:15:37;;;;;;;11.20;3.85;;;;;;;36.71;35.14;100749.09;5111490;28;20044;-68
2021/08/12 07:18:04;;;;;;;13.73;4.22;;;;;;;36.78;35.00;100759.50;5111799;28;20043;-69
2021/08/12 07:20:36;;;;;;;13.98;3.45;;;;;;;36.69;35.05;100755.75;5111425;28;20063;-68
2021/08/12 07:23:04;;;;;;;12.45;3.67;;;;;;;36.35;35.44;100755.25;5111729;28;20097;-69
2021/08/12 07:25:31;;;;;;;13.15;4.20;;;;;;;36.47;35.74;100758.75;5111025;28;20032;-69
2021/08/12 07:27:58;;;;;;;11.85;4.22;;;;;;;36.67;34.97;100761.41;5111443;28;20044;-69
2021/08/12 07:30:26;;;;;;;12.88;4.70;;;;;;;36.86;35.22;100752.28;5111239;28;20048;-69
2021/08/12 07:32:53;;;;;;;16.33;4.20;;;;;;;37.07;34.65;100761.25;5111254;28;20040;-69
2021/08/12 07:35:22;;;;;;;15.30;4.22;;;;;;;37.23;34.24;100751.53;5114133;28;20467;-69
2021/08/12 07:37:51;;;;;;;14.05;4.88;;;;;;;37.23;33.66;100757.03;5114963;27;20437;-69
2021/08/12 07:40:18;;;;;;;13.10;4.55;;;;;;;37.23;33.37;100749.66;5114106;28;20052;-69
2021/08/12 07:42:45;;;;;;;13.02;4.30;;;;;;;37.26;33.46;100754.00;5115354;28;20044;-69
2021/08/12 07:45:13;;;;;;;14.10;4.53;;;;;;;37.31;33.19;100760.78;5114038;28;20510;-70
2021/08/12 07:47:40;;;;;;;11.38;5.00;;;;;;;37.43;32.57;100764.25;5114430;27;20039;-68
2021/08/12 07:50:11;;;;;;;11.38;4.38;;;;;;;37.52;32.27;100757.84;5114681;27;20044;-68
2021/08/12 07:52:42;;;;;;;13.98;4.65;;;;;;;37.58;32.05;100750.91;5114995;27;20100;-69
2021/08/12 07:55:12;;;;;;;13.07;4.20;;;;;;;37.77;32.13;100750.81;5115066;27;20109;-69
2021/08/12 07:57:40;;;;;;;15.10;5.18;;;;;;;37.75;31.96;100759.22;5114630;28;20506;-69
2021/08/12 08:00:09;;;;;;;15.07;4.95;;;;;;;37.74;31.81;100749.25;5114806;27;20051;-68
2021/08/12 08:02:44;;;;;;;12.38;4.88;;;;;;;37.88;32.08;100764.41;5114913;28;20036;-70
2021/08/12 08:05:15;;;;;;;15.10;4.47;;;;;;;37.96;32.40;100761.75;5113326;28;20048;-70
2021/08/12 08:07:55;;;;;;;19.27;5.53;;;;;;;37.88;32.69;100776.31;5114347;27;20596;-69
2021/08/12 08:10:26;;;;;;;10.63;4.28;;;;;;;38.06;32.77;100776.41;5114622;27;20047;-70
2021/08/12 08:12:54;;;;;;;14.25;4.55;;;;;;;38.02;32.62;100774.06;5114160;28;20039;-70
2021/08/12 08:15:23;;;;;;;25.17;5.78;;;;;;;38.07;32.56;100778.13;5114460;28;20050;-70
2021/08/12 08:17:50;;;;;;;13.65;4.50;;;;;;;38.08;32.98;100774.34;5114395;28;20058;-70
2021/08/12 08:20:18;;;;;;;11.35;4.20;;;;;;;38.07;32.70;100780.03;5114625;28;20036;-70
2021/08/12 08:22:45;;;;;;;11.13;4.38;;;;;;;38.12;32.86;100784.06;5114139;27;20038;-70
2021/08/12 08:25:14;;;;;;;14.15;4.05;;;;;;;38.24;32.49;100777.31;5114312;27;20044;-70
2021/08/12 08:27:42;;;;;;;14.32;4.07;;;;;;;38.34;32.34;100776.38;5114072;28;20040;-69
2021/08/12 08:30:11;;;;;;;15.25;4.80;;;;;;;38.55;32.11;100783.41;5114089;27;20043;-69
2021/08/12 08:32:41;;;;;;;13.45;4.28;;;;;;;38.69;31.88;100773.69;5113657;27;20046;-69
2021/08/12 08:35:08;;;;;;;19.75;5.15;;;;;;;38.57;31.61;100775.84;5114041;27;20044;-68
2021/08/12 08:37:36;;;;;;;15.45;4.45;;;;;;;38.51;31.45;100770.94;5111942;27;20035;-70
2021/08/12 08:40:03;;;;;;;12.18;3.92;;;;;;;38.60;31.74;100766.34;5114019;28;20061;-70
2021/08/12 08:42:31;;;;;;;10.45;3.60;;;;;;;38.52;31.67;100771.81;5113820;28;20044;-70
2021/08/12 08:45:01;;;;;;;21.88;5.65;;;;;;;38.51;31.56;100765.41;5113874;28;20054;-70
2021/08/12 08:47:29;;;;;;;14.95;5.28;;;;;;;38.74;31.36;100760.28;5112962;28;20048;-70
2021/08/12 08:49:57;;;;;;;11.70;4.18;;;;;;;38.95;31.15;100766.38;5113916;28;20063;-70
2021/08/12 08:52:26;;;;;;;13.23;4.88;;;;;;;38.96;30.79;100759.84;5112228;27;20044;-70
2021/08/12 08:54:56;;;;;;;10.15;4.10;;;;;;;39.11;30.53;100768.44;5113678;27;20039;-70
2021/08/12 08:57:23;;;;;;;10.15;4.07;;;;;;;39.05;30.66;100769.94;5113635;27;20040;-70
2021/08/12 08:59:51;;;;;;;9.80;4.57;;;;;;;39.16;30.54;100765.19;5113704;27;20046;-70
2021/08/12 09:02:20;;;;;;;12.75;4.00;;;;;;;39.16;30.75;100763.28;5110672;27;20043;-69
2021/08/12 09:04:47;;;;;;;16.33;4.60;;;;;;;39.18;30.55;100769.53;5113484;28;20041;-70
2021/08/12 09:07:14;;;;;;;13.38;4.47;;;;;;;39.17;30.59;100766.91;5113286;28;20509;-70
2021/08/12 09:09:42;;;;;;;9.70;3.75;;;;;;;39.29;31.05;100765.63;5113549;28;20039;-70
2021/08/12 09:12:10;;;;;;;14.05;3.92;;;;;;;39.23;31.05;100769.03;5113342;28;20039;-68
2021/08/12 09:14:46;;;;;;;13.70;4.47;;;;;;;38.93;31.12;100767.56;5112985;27;20032;-70
2021/08/12 09:17:25;;;;;;;11.32;4.53;;;;;;;38.92;31.42;100775.00;5113568;28;20043;-70
2021/08/12 09:20:14;;;;;;;11.48;4.40;;;;;;;39.09;31.14;100778.78;5107547;28;20119;-70
2021/08/12 09:22:59;;;;;;;11.75;4.30;;;;;;;39.44;30.52;100773.22;5113105;28;20042;-69
2021/08/12 09:25:35;;;;;;;8.77;4.07;;;;;;;39.56;30.20;100784.00;5111278;28;20047;-70
2021/08/12 09:28:17;;;;;;;16.50;4.70;;;;;;;39.39;30.35;100785.75;5112096;28;20043;-69
2021/08/12 09:30:46;;;;;;;13.45;4.97;;;;;;;39.32;30.51;100782.75;5112568;28;20122;-71
2021/08/12 09:33:19;;;;;;;15.05;5.00;;;;;;;39.21;30.72;100774.72;5111296;27;20039;-70
2021/08/12 09:35:47;;;;;;;;;;;;;;;39.00;31.42;100780.59;5113326;28;20043;-69
2021/08/12 09:38:15;;;;;;;13.75;4.68;;;;;;;39.12;31.14;100789.53;5112415;28;19919;-71
2021/08/12 09:40:44;;;;;;;12.07;4.50;;;;;;;39.13;31.21;100793.13;5110964;27;20552;-69
2021/08/12 09:43:14;;;;;;;10.95;4.60;;;;;;;39.11;31.16;100793.31;5108960;28;20077;-69
2021/08/12 09:45:42;;;;;;;12.57;4.57;;;;;;;39.02;31.64;100805.28;5111632;27;20040;-69
2021/08/12 09:48:12;;;;;;;11.23;4.07;;;;;;;38.85;31.84;100811.66;5112133;28;20047;-67
2021/08/12 09:50:42;;;;;;;13.57;4.80;;;;;;;38.76;31.88;100812.59;5112320;27;20039;-69
2021/08/12 09:53:17;;;;;;;13.00;4.88;;;;;;;38.81;32.23;100810.22;5112522;28;20040;-69
2021/08/12 09:55:44;;;;;;;11.30;4.43;;;;;;;38.98;32.05;100812.19;5112323;28;20036;-69
2021/08/12 09:58:13;;;;;;;9.82;4.05;;;;;;;38.98;31.85;100817.69;5111604;28;20032;-68
2021/08/12 10:00:44;;;;;;;11.52;4.38;;;;;;;38.83;32.20;100822.88;5112475;27;20035;-69
2021/08/12 10:03:23;;;;;;;16.73;4.15;;;;;;;39.00;31.71;100819.25;5108911;28;20035;-69
2021/08/12 10:05:53;;;;;;;11.15;4.47;;;;;;;39.03;31.70;100826.38;5112205;28;20110;-69
2021/08/12 10:08:32;;;;;;;12.40;4.95;;;;;;;38.84;32.17;100820.97;5112132;28;20046;-70
2021/08/12 10:11:17;;;;;;;16.45;3.97;;;;;;;38.77;32.12;100829.03;5112115;28;20127;-69
2021/08/12 10:13:45;;;;;;;9.30;4.07;;;;;;;38.64;32.37;100815.59;5111866;28;20050;-68
2021/08/12 10:16:14;;;;;;;11.65;4.28;;;;;;;38.56;32.31;100818.25;5112144;28;20043;-70
2021/08/12 10:18:44;;;;;;;11.00;4.93;;;;;;;38.44;32.60;100819.47;5111751;28;20031;-69
2021/08/12 10:21:14;;;;;;;11.43;4.68;;;;;;;38.22;32.64;100811.59;5112075;28;20032;-69
2021/08/12 10:23:44;;;;;;;14.50;5.03;;;;;;;38.16;32.44;100818.59;5112186;28;20047;-71
2021/08/12 10:26:12;;;;;;;12.68;5.00;;;;;;;38.24;31.96;100812.31;5111466;28;20043;-68
2021/08/12 10:28:42;;;;;;;15.85;5.88;;;;;;;38.20;32.09;100813.66;5105846;27;20406;-68
2021/08/12 10:31:14;;;;;;;12.75;4.68;;;;;;;38.33;31.88;100814.16;5123330;27;20044;-68
2021/08/12 10:33:45;;;;;;;11.55;4.32;;;;;;;38.32;32.20;100814.31;5111895;28;20032;-69
2021/08/12 10:36:34;;;;;;;11.05;5.13;;;;;;;38.04;32.28;100800.50;5109790;28;20043;-70
2021/08/12 10:39:02;;;;;;;13.75;4.40;;;;;;;37.95;32.55;100806.91;5111765;28;20071;-69
2021/08/12 10:41:30;;;;;;;11.68;4.38;;;;;;;37.94;32.83;100809.84;5111828;28;20058;-69
2021/08/12 10:44:00;;;;;;;12.50;5.07;;;;;;;37.90;32.98;100817.53;5111164;28;20035;-70
2021/08/12 10:46:35;;;;;;;10.45;4.13;;;;;;;37.98;33.31;100816.75;5111705;28;20042;-70
2021/08/12 10:49:25;;;;;;;9.57;5.10;;;;;;;37.95;33.35;100815.16;5111803;28;20036;-70
2021/08/12 10:52:01;;;;;;;13.70;4.63;;;;;;;37.83;34.24;100825.53;5109930;28;20475;-70
2021/08/12 10:54:29;;;;;;;15.90;4.60;;;;;;;37.76;34.51;100829.03;5112198;28;20409;-71
2021/08/12 10:57:18;;;;;;;13.00;4.82;;;;;;;37.64;34.15;100821.97;5107541;28;20036;-70
2021/08/12 10:59:47;;;;;;;9.52;5.28;;;;;;;37.59;34.27;100822.41;5111415;28;20036;-70
2021/08/12 11:02:45;;;;;;;12.77;5.32;;;;;;;37.56;33.15;100833.69;5111096;28;20035;-72
2021/08/12 11:05:14;;;;;;;12.13;5.60;;;;;;;37.64;32.81;100830.22;5110908;28;20035;-72
2021/08/12 11:07:51;;;;;;;11.23;4.50;;;;;;;37.66;33.05;100833.72;5111436;28;20032;-72
2021/08/12 11:10:19;;;;;;;11.35;5.10;;;;;;;37.70;33.18;100838.78;5113906;27;20035;-72
2021/08/12 11:13:05;;;;;;;14.80;5.20;;;;;;;37.84;32.50;100838.28;5115108;27;20040;-73
2021/08/12 11:16:00;;;;;;;15.07;5.55;;;;;;;37.93;32.88;100830.16;5114426;27;20502;-71
2021/08/12 11:18:48;;;;;;;11.40;4.57;;;;;;;38.11;32.00;100829.22;5106575;27;20046;-72
2021/08/12 11:21:45;;;;;;;15.77;5.72;;;;;;;38.31;30.80;100830.00;5114740;28;20039;-70
2021/08/12 11:24:50;;;;;;;12.95;5.05;;;;;;;38.26;31.05;100824.09;5032004;28;20061;-71
2021/08/12 11:27:33;;;;;;;12.05;5.15;;;;;;;38.18;30.73;100822.09;5114557;28;20070;-70
2021/08/12 11:30:46;;;;;;;8.65;4.50;;;;;;;38.15;30.52;100824.25;5115171;28;20032;-70
2021/08/12 11:33:31;;;;;;;10.48;4.28;;;;;;;38.37;30.62;100821.09;5114630;27;20088;-69
2021/08/12 11:36:22;;;;;;;10.38;4.82;;;;;;;38.58;30.49;100827.25;5114027;28;20047;-70